Time;durP1;ratioP1;P1;durP2;ratioP2;P2;SDS_P1;SDS_P2;PMS_P1;PMS_P2;Temp;Humidity;BMP_temperature;BMP_pressure;BME280_temperature;BME280_humidity;BME280_pressure;Samples;Min_cycle;Max_cycle;Signal;HPM_P1;HPM_P2
2020/12/12 00:00:24;;;;;;;13.38;7.47;;;3.90;99.90;;;;;;5013718;28;20044;-80
2020/12/12 00:02:50;;;;;;;13.20;7.07;;;4.00;99.90;;;;;;5015605;28;20061;-80
2020/12/12 00:05:16;;;;;;;13.85;7.85;;;4.00;99.90;;;;;;5031200;28;20129;-81
2020/12/12 00:07:41;;;;;;;12.70;7.15;;;3.90;99.90;;;;;;5015040;28;20449;-80
2020/12/12 00:10:07;;;;;;;14.27;7.72;;;4.00;99.90;;;;;;5049265;28;20113;-79
2020/12/12 00:12:32;;;;;;;15.25;8.07;;;4.00;99.90;;;;;;5031507;28;20405;-81
2020/12/12 00:14:58;;;;;;;15.10;7.88;;;4.00;99.90;;;;;;5031388;28;20044;-82
2020/12/12 00:17:24;;;;;;;16.23;7.85;;;4.00;99.90;;;;;;5015289;28;20025;-82
2020/12/12 00:19:49;;;;;;;15.48;9.18;;;4.00;99.90;;;;;;5015292;28;20101;-81
2020/12/12 00:22:15;;;;;;;15.07;7.95;;;4.00;99.90;;;;;;5031541;28;20036;-81
2020/12/12 00:24:41;;;;;;;14.82;8.63;;;4.00;99.90;;;;;;5031409;28;20424;-80
2020/12/12 00:27:07;;;;;;;13.55;8.07;;;4.00;99.90;;;;;;5014860;28;20041;-81
2020/12/12 00:29:32;;;;;;;14.52;8.27;;;4.00;99.90;;;;;;5014992;28;20060;-81
2020/12/12 00:31:59;;;;;;;11.38;6.40;;;4.00;99.90;;;;;;5031276;28;20040;-81
2020/12/12 00:34:26;;;;;;;13.68;8.05;;;4.00;99.90;;;;;;5014681;28;20033;-82
2020/12/12 00:36:53;;;;;;;12.35;6.72;;;4.10;99.90;;;;;;5014517;28;20045;-81
2020/12/12 00:39:19;;;;;;;13.77;7.47;;;4.10;99.90;;;;;;5014883;28;20067;-81
2020/12/12 00:41:45;;;;;;;15.50;8.68;;;4.00;99.90;;;;;;5014749;28;20113;-81
2020/12/12 00:44:11;;;;;;;13.50;7.95;;;4.10;99.90;;;;;;5031210;28;20055;-80
2020/12/12 00:46:38;;;;;;;16.83;9.85;;;4.00;99.90;;;;;;5014339;28;20048;-80
2020/12/12 00:49:08;;;;;;;15.60;9.50;;;4.10;99.90;;;;;;5014662;28;20025;-81
2020/12/12 00:51:34;;;;;;;18.10;9.88;;;4.00;99.90;;;;;;5014441;28;20053;-81
2020/12/12 00:54:01;;;;;;;16.70;9.00;;;4.10;99.90;;;;;;5014473;28;20033;-81
2020/12/12 00:56:30;;;;;;;16.20;9.50;;;4.00;99.90;;;;;;5014838;28;20058;-81
2020/12/12 00:58:55;;;;;;;18.80;10.88;;;4.10;99.90;;;;;;5014694;28;20033;-81
2020/12/12 01:01:21;;;;;;;17.92;10.50;;;4.00;99.90;;;;;;5030779;28;20033;-82
2020/12/12 01:04:27;;;;;;;18.45;9.60;;;4.00;99.90;;;;;;5030787;28;20028;-80
2020/12/12 01:06:53;;;;;;;16.52;9.13;;;4.00;99.90;;;;;;4931809;29;20115;-80
2020/12/12 01:09:18;;;;;;;19.73;10.07;;;4.00;99.90;;;;;;4932434;29;20067;-80
2020/12/12 01:11:44;;;;;;;19.70;11.57;;;4.00;99.90;;;;;;4931444;29;20036;-81
2020/12/12 01:14:10;;;;;;;19.15;10.82;;;4.10;99.90;;;;;;4932409;29;20516;-80
2020/12/12 01:16:35;;;;;;;17.38;9.68;;;4.10;99.90;;;;;;4950644;29;20046;-80
2020/12/12 01:19:01;;;;;;;20.73;10.82;;;4.10;99.90;;;;;;4951278;29;20567;-80
2020/12/12 01:21:27;;;;;;;19.15;9.68;;;4.10;99.90;;;;;;4941085;29;20039;-80
2020/12/12 01:23:53;;;;;;;20.73;11.30;;;4.10;99.90;;;;;;4929153;29;20047;-81
2020/12/12 01:26:19;;;;;;;20.90;12.25;;;4.10;99.90;;;;;;4929086;29;20706;-81
2020/12/12 01:28:45;;;;;;;20.70;11.05;;;4.10;99.90;;;;;;4930091;29;20035;-80
2020/12/12 01:31:12;;;;;;;21.52;11.13;;;4.10;99.90;;;;;;4930086;29;20052;-81
2020/12/12 01:33:38;;;;;;;20.13;10.10;;;4.10;99.90;;;;;;4930197;29;20038;-81
2020/12/12 01:36:05;;;;;;;19.05;10.75;;;4.10;99.90;;;;;;4929501;29;20067;-81
2020/12/12 01:38:31;;;;;;;19.48;10.70;;;4.10;99.90;;;;;;4928907;29;20071;-81
2020/12/12 01:40:57;;;;;;;19.58;10.63;;;4.10;99.90;;;;;;4929063;29;20099;-81
2020/12/12 01:43:22;;;;;;;20.75;10.60;;;4.10;99.90;;;;;;4949151;28;20061;-81
2020/12/12 01:45:48;;;;;;;21.67;11.43;;;4.20;99.90;;;;;;5007044;28;20042;-80
2020/12/12 01:48:14;;;;;;;21.45;10.93;;;4.10;99.90;;;;;;4989520;28;20431;-81
2020/12/12 01:50:40;;;;;;;17.30;10.02;;;4.10;99.90;;;;;;5001146;28;20406;-81
2020/12/12 01:53:07;;;;;;;18.10;9.88;;;4.10;99.90;;;;;;4990343;28;20037;-81
2020/12/12 01:55:34;;;;;;;16.77;9.68;;;4.20;99.90;;;;;;5007029;28;20121;-81
2020/12/12 01:58:00;;;;;;;19.05;10.77;;;4.20;99.90;;;;;;5006478;28;20030;-81
2020/12/12 02:00:26;;;;;;;17.27;9.73;;;4.20;99.90;;;;;;4999205;28;20034;-81
2020/12/12 02:02:57;;;;;;;18.42;10.63;;;4.10;99.90;;;;;;5006238;28;20029;-80
2020/12/12 02:05:40;;;;;;;20.35;11.00;;;4.20;99.90;;;;;;5008472;28;20038;-80
2020/12/12 02:08:17;;;;;;;16.27;9.30;;;4.20;99.90;;;;;;5009734;28;20044;-81
2020/12/12 02:10:47;;;;;;;14.15;7.85;;;4.20;99.90;;;;;;5026260;28;20026;-80
2020/12/12 02:13:13;;;;;;;;;;;4.20;99.90;;;;;;5010086;28;20037;-80
2020/12/12 02:15:40;;;;;;;14.35;7.85;;;4.20;99.90;;;;;;5018112;28;19910;-80
2020/12/12 02:18:08;;;;;;;15.45;7.97;;;4.20;99.90;;;;;;5009322;28;20129;-81
2020/12/12 02:20:34;;;;;;;16.83;8.75;;;4.20;99.90;;;;;;5009513;28;20033;-81
2020/12/12 02:23:00;;;;;;;12.75;7.13;;;4.20;99.90;;;;;;5011970;28;20129;-80
2020/12/12 02:25:26;;;;;;;14.65;8.68;;;4.20;99.90;;;;;;5012807;28;20045;-80
2020/12/12 02:27:56;;;;;;;17.55;9.00;;;4.20;99.90;;;;;;5012469;28;20103;-81
2020/12/12 02:30:22;;;;;;;18.27;9.27;;;4.20;99.90;;;;;;5012544;28;20029;-81
2020/12/12 02:32:49;;;;;;;18.27;8.90;;;4.20;99.90;;;;;;5012448;28;20173;-80
2020/12/12 02:35:16;;;;;;;16.98;9.07;;;4.20;99.90;;;;;;5028879;28;20079;-80
2020/12/12 02:37:41;;;;;;;16.17;9.13;;;4.20;99.90;;;;;;5045271;28;20037;-81
2020/12/12 02:40:07;;;;;;;14.77;8.23;;;4.30;99.90;;;;;;5045532;28;20044;-84
2020/12/12 02:42:33;;;;;;;12.48;7.22;;;4.20;99.90;;;;;;5012319;28;20036;-81
2020/12/12 02:44:58;;;;;;;12.60;6.45;;;4.30;99.90;;;;;;5012470;28;20041;-81
2020/12/12 02:47:24;;;;;;;13.55;7.63;;;4.30;99.90;;;;;;5012328;28;20037;-80
2020/12/12 02:50:11;;;;;;;13.65;7.57;;;4.30;99.90;;;;;;5012395;28;20037;-80
2020/12/12 02:52:38;;;;;;;14.40;7.80;;;4.30;99.90;;;;;;5045102;28;20056;-81
2020/12/12 02:55:09;;;;;;;16.90;9.52;;;4.30;99.90;;;;;;5012073;28;20083;-81
2020/12/12 02:57:35;;;;;;;17.38;8.15;;;4.30;99.90;;;;;;5044837;28;20036;-81
2020/12/12 03:00:06;;;;;;;14.38;8.25;;;4.30;99.90;;;;;;5045161;28;20075;-82
2020/12/12 03:02:32;;;;;;;18.13;10.38;;;4.30;99.90;;;;;;5045035;28;20485;-80
2020/12/12 03:04:58;;;;;;;18.40;10.10;;;4.40;99.90;;;;;;5044548;28;20097;-81
2020/12/12 03:07:23;;;;;;;19.25;10.82;;;4.30;99.90;;;;;;5028004;28;20052;-81
2020/12/12 03:09:49;;;;;;;18.13;9.40;;;4.30;99.90;;;;;;5028191;28;20556;-80
2020/12/12 03:12:14;;;;;;;18.10;10.70;;;4.40;99.90;;;;;;5011850;28;20033;-81
2020/12/12 03:14:40;;;;;;;19.45;10.45;;;4.40;99.90;;;;;;5025052;28;20041;-80
2020/12/12 03:17:09;;;;;;;16.63;9.05;;;4.30;99.90;;;;;;5024847;28;20080;-81
2020/12/12 03:19:36;;;;;;;16.65;10.48;;;4.30;99.90;;;;;;5008540;28;20044;-81
2020/12/12 03:22:02;;;;;;;18.45;11.02;;;4.40;99.90;;;;;;5003811;28;20429;-80
2020/12/12 03:24:27;;;;;;;17.48;10.10;;;4.40;99.90;;;;;;5045977;28;20099;-80
2020/12/12 03:26:53;;;;;;;18.85;10.20;;;4.40;99.90;;;;;;5028053;28;20041;-81
2020/12/12 03:29:18;;;;;;;16.95;9.27;;;4.40;99.90;;;;;;5011642;28;20033;-80
2020/12/12 03:31:44;;;;;;;20.83;11.77;;;4.40;99.90;;;;;;5011711;28;20029;-80
2020/12/12 03:34:09;;;;;;;18.65;10.75;;;4.40;99.90;;;;;;5011036;28;20229;-80
2020/12/12 03:36:35;;;;;;;19.15;10.93;;;4.40;99.90;;;;;;5044362;28;20071;-80
2020/12/12 03:39:00;;;;;;;18.40;10.70;;;4.40;99.90;;;;;;5027944;28;20032;-80
2020/12/12 03:41:26;;;;;;;20.50;11.10;;;4.40;99.90;;;;;;5011565;28;20037;-81
2020/12/12 03:43:52;;;;;;;19.38;10.50;;;4.40;99.90;;;;;;5011630;28;20025;-80
2020/12/12 03:46:17;;;;;;;20.92;10.23;;;4.40;99.90;;;;;;5011412;28;20075;-80
2020/12/12 03:48:43;;;;;;;17.98;9.30;;;4.40;99.90;;;;;;5028207;28;20385;-81
2020/12/12 03:51:09;;;;;;;17.05;8.93;;;4.50;99.90;;;;;;5011364;28;20034;-81
2020/12/12 03:53:34;;;;;;;20.38;9.82;;;4.40;99.90;;;;;;5011554;28;20044;-81
2020/12/12 03:56:00;;;;;;;16.38;9.25;;;4.50;99.90;;;;;;5012661;28;20547;-81
2020/12/12 03:58:25;;;;;;;17.15;10.02;;;4.50;99.90;;;;;;5012537;28;20034;-80
2020/12/12 04:00:51;;;;;;;17.05;9.77;;;4.50;99.90;;;;;;5012651;28;20033;-81
2020/12/12 04:03:17;;;;;;;19.20;9.63;;;4.50;99.90;;;;;;5011924;28;20033;-80
2020/12/12 04:05:44;;;;;;;16.25;9.15;;;4.50;99.90;;;;;;5010780;28;20045;-81
2020/12/12 04:08:11;;;;;;;17.30;10.10;;;4.50;99.90;;;;;;5027478;28;20254;-80
2020/12/12 04:10:36;;;;;;;17.25;9.20;;;4.50;99.90;;;;;;5027542;28;20044;-80
2020/12/12 04:13:03;;;;;;;14.95;8.68;;;4.50;99.90;;;;;;5010877;28;20097;-80
2020/12/12 04:15:28;;;;;;;17.77;9.43;;;4.50;99.90;;;;;;5045317;28;20124;-80
2020/12/12 04:17:54;;;;;;;14.82;8.20;;;4.50;99.90;;;;;;5011164;28;20034;-81
2020/12/12 04:20:20;;;;;;;17.65;9.25;;;4.50;99.90;;;;;;5010976;28;20040;-80
2020/12/12 04:22:45;;;;;;;15.13;8.52;;;4.50;99.90;;;;;;4993509;28;20197;-81
2020/12/12 04:25:11;;;;;;;14.00;8.02;;;4.50;99.90;;;;;;5025192;28;20034;-80
2020/12/12 04:27:36;;;;;;;16.63;8.98;;;4.50;99.90;;;;;;4991511;28;20034;-81
2020/12/12 04:30:04;;;;;;;16.73;8.25;;;4.60;99.90;;;;;;5025366;28;20034;-81
2020/12/12 04:32:29;;;;;;;11.90;7.28;;;4.50;99.90;;;;;;4991600;28;20030;-81
2020/12/12 04:34:55;;;;;;;13.73;8.50;;;4.50;99.90;;;;;;4991292;28;20033;-80
2020/12/12 04:37:21;;;;;;;14.32;8.68;;;4.60;99.90;;;;;;5007720;28;20041;-81
2020/12/12 04:39:46;;;;;;;13.52;7.78;;;4.60;99.90;;;;;;4991479;28;20030;-80
2020/12/12 04:42:14;;;;;;;14.73;8.15;;;4.60;99.90;;;;;;4991586;28;20036;-80
2020/12/12 04:44:40;;;;;;;14.85;8.85;;;4.60;99.90;;;;;;4991292;28;20034;-81
2020/12/12 04:47:07;;;;;;;15.13;8.63;;;4.60;99.90;;;;;;4993200;28;20038;-80
2020/12/12 04:49:34;;;;;;;19.38;9.07;;;4.60;99.90;;;;;;5011233;28;20109;-81
2020/12/12 04:52:03;;;;;;;15.77;9.25;;;4.60;99.90;;;;;;5011104;28;20037;-80
2020/12/12 04:54:31;;;;;;;14.15;8.38;;;4.60;99.90;;;;;;4995145;28;20053;-81
2020/12/12 04:56:58;;;;;;;13.23;7.55;;;4.60;99.90;;;;;;4994840;28;20497;-81
2020/12/12 04:59:29;;;;;;;16.75;9.48;;;4.60;99.90;;;;;;5011063;28;20045;-81
2020/12/12 05:01:54;;;;;;;15.38;8.18;;;4.60;99.90;;;;;;4994678;28;20037;-80
2020/12/12 05:04:20;;;;;;;14.32;8.30;;;4.60;99.90;;;;;;5010959;28;20104;-80
2020/12/12 05:06:45;;;;;;;12.48;7.47;;;4.60;99.90;;;;;;5007688;28;20049;-80
2020/12/12 05:09:11;;;;;;;16.33;8.48;;;4.60;99.90;;;;;;5030641;28;20041;-81
2020/12/12 05:11:37;;;;;;;16.60;8.50;;;4.60;99.90;;;;;;5047258;28;20036;-81
2020/12/12 05:14:09;;;;;;;14.05;8.80;;;4.70;99.90;;;;;;5046957;28;20465;-81
2020/12/12 05:16:35;;;;;;;12.25;7.75;;;4.70;99.90;;;;;;5063235;28;20061;-81
2020/12/12 05:19:03;;;;;;;13.93;8.02;;;4.70;99.90;;;;;;5065447;28;20036;-81
2020/12/12 05:21:29;;;;;;;15.48;8.05;;;4.70;99.90;;;;;;5043329;28;20030;-80
2020/12/12 05:23:54;;;;;;;15.38;8.07;;;4.70;99.90;;;;;;5023678;28;20116;-80
2020/12/12 05:26:20;;;;;;;15.68;9.25;;;4.70;99.90;;;;;;5029980;28;20053;-80
2020/12/12 05:28:47;;;;;;;16.80;8.13;;;4.70;99.90;;;;;;5047131;28;20033;-80
2020/12/12 05:31:13;;;;;;;13.48;8.13;;;4.70;99.90;;;;;;5046488;28;20044;-81
2020/12/12 05:33:39;;;;;;;18.20;8.80;;;4.70;99.90;;;;;;5048162;28;20059;-83
2020/12/12 05:36:05;;;;;;;16.88;8.35;;;4.70;99.90;;;;;;5029939;28;20096;-80
2020/12/12 05:38:30;;;;;;;13.00;8.15;;;4.70;99.90;;;;;;5047825;28;20045;-81
2020/12/12 05:40:56;;;;;;;12.18;6.82;;;4.70;99.90;;;;;;5031791;28;20033;-80
2020/12/12 05:43:31;;;;;;;13.77;7.22;;;4.70;99.90;;;;;;5029985;28;20037;-81
2020/12/12 05:45:59;;;;;;;12.48;6.55;;;4.70;99.90;;;;;;5046227;28;20045;-80
2020/12/12 05:48:25;;;;;;;14.95;7.85;;;4.80;99.90;;;;;;5029800;28;20026;-81
2020/12/12 05:50:51;;;;;;;13.80;7.88;;;4.70;99.90;;;;;;5029723;28;20082;-81
2020/12/12 05:53:17;;;;;;;15.13;8.20;;;4.80;99.90;;;;;;5029616;28;20038;-80
2020/12/12 05:55:45;;;;;;;12.68;7.25;;;4.80;99.90;;;;;;5029514;28;20034;-81
2020/12/12 05:58:14;;;;;;;14.15;8.02;;;4.80;99.90;;;;;;5029475;28;20504;-80
2020/12/12 06:00:40;;;;;;;12.38;6.78;;;4.80;99.90;;;;;;5046038;28;20051;-80
2020/12/12 06:03:20;;;;;;;13.75;7.13;;;4.80;99.90;;;;;;5046269;28;20029;-80
2020/12/12 06:05:48;;;;;;;13.18;8.10;;;4.80;99.90;;;;;;5028797;28;20092;-81
2020/12/12 06:08:30;;;;;;;12.90;7.50;;;4.80;99.90;;;;;;5029146;28;20040;-80
2020/12/12 06:11:02;;;;;;;14.35;7.38;;;4.80;99.90;;;;;;5017521;28;20036;-81
2020/12/12 06:13:33;;;;;;;16.05;7.68;;;4.80;99.90;;;;;;5029676;28;20043;-81
2020/12/12 06:16:03;;;;;;;14.23;6.63;;;4.80;99.90;;;;;;5042890;28;20060;-81
2020/12/12 06:18:47;;;;;;;16.67;8.23;;;4.90;99.90;;;;;;5049489;28;20044;-81
2020/12/12 06:21:14;;;;;;;11.60;6.22;;;4.80;99.90;;;;;;5043627;28;20030;-81
2020/12/12 06:23:40;;;;;;;12.85;7.30;;;4.90;99.90;;;;;;5029252;28;20034;-81
2020/12/12 06:26:07;;;;;;;14.93;8.15;;;4.90;99.90;;;;;;5012479;28;20041;-81
2020/12/12 06:28:40;;;;;;;17.45;7.28;;;4.80;99.90;;;;;;5029359;28;20091;-81
2020/12/12 06:31:07;;;;;;;15.82;8.68;;;4.80;99.90;;;;;;5028606;28;20037;-81
2020/12/12 06:33:47;;;;;;;13.10;7.03;;;4.90;99.90;;;;;;5029008;28;20126;-82
2020/12/12 06:36:24;;;;;;;16.85;8.95;;;4.90;99.90;;;;;;5028625;28;20041;-81
2020/12/12 06:38:50;;;;;;;14.23;8.00;;;4.90;99.90;;;;;;5028835;28;20035;-81
2020/12/12 06:41:32;;;;;;;16.00;8.50;;;4.90;99.90;;;;;;5028624;28;20037;-80
2020/12/12 06:43:58;;;;;;;17.73;8.27;;;4.90;99.90;;;;;;5028679;28;20025;-81
2020/12/12 06:46:51;;;;;;;20.67;8.80;;;5.00;99.90;;;;;;5028401;28;20103;-81
2020/12/12 06:49:16;;;;;;;15.80;7.93;;;4.90;99.90;;;;;;5012412;28;20036;-81
2020/12/12 06:51:42;;;;;;;17.17;7.78;;;4.90;99.90;;;;;;5028459;28;20127;-81
2020/12/12 06:56:58;;;;;;;14.88;7.35;;;4.90;99.90;;;;;;5005525;28;20077;-80
2020/12/12 06:59:31;;;;;;;15.52;8.02;;;4.90;99.90;;;;;;5005878;28;20049;-79
2020/12/12 07:02:05;;;;;;;14.02;8.05;;;4.90;99.90;;;;;;4989111;28;20038;-81
2020/12/12 07:04:36;;;;;;;15.13;7.05;;;4.90;99.90;;;;;;5004841;28;20034;-79
2020/12/12 07:07:10;;;;;;;17.05;8.48;;;4.90;99.90;;;;;;5005561;28;20511;-81
2020/12/12 07:09:39;;;;;;;13.75;7.38;;;4.90;99.90;;;;;;4989455;28;20069;-81
2020/12/12 07:12:06;;;;;;;16.50;8.32;;;4.90;99.90;;;;;;5005540;28;20026;-80
2020/12/12 07:14:32;;;;;;;20.13;8.65;;;4.90;99.90;;;;;;4988927;28;20042;-79
2020/12/12 07:16:59;;;;;;;12.10;6.28;;;5.00;99.90;;;;;;4989028;28;20040;-80
2020/12/12 07:19:40;;;;;;;15.85;7.72;;;5.00;99.90;;;;;;5006520;28;20482;-81
2020/12/12 07:22:10;;;;;;;14.80;7.65;;;4.90;99.90;;;;;;4977010;28;20078;-79
2020/12/12 07:24:37;;;;;;;17.25;7.55;;;5.00;99.90;;;;;;4985551;28;20058;-80
2020/12/12 07:27:04;;;;;;;17.45;7.63;;;5.00;99.90;;;;;;4969483;28;20035;-80
2020/12/12 07:29:30;;;;;;;17.50;8.27;;;5.00;99.90;;;;;;4985768;28;20034;-80
2020/12/12 07:31:57;;;;;;;16.40;8.35;;;5.00;99.90;;;;;;4985477;28;20058;-80
2020/12/12 07:34:24;;;;;;;21.45;9.10;;;5.00;99.90;;;;;;4969569;28;20475;-81
2020/12/12 07:37:05;;;;;;;19.08;8.23;;;5.00;99.90;;;;;;4986660;28;20054;-80
2020/12/12 07:39:43;;;;;;;21.85;9.90;;;5.10;99.90;;;;;;4969496;28;20038;-81
2020/12/12 07:42:10;;;;;;;18.35;8.48;;;5.10;99.90;;;;;;4985380;28;20035;-82
2020/12/12 07:44:48;;;;;;;26.55;12.23;;;5.10;99.90;;;;;;4969204;28;20410;-81
2020/12/12 07:47:14;;;;;;;24.13;11.65;;;5.10;99.90;;;;;;4985522;28;20038;-81
2020/12/12 07:49:39;;;;;;;25.13;10.68;;;5.10;99.90;;;;;;4969697;28;20038;-81
2020/12/12 07:52:09;;;;;;;32.40;11.02;;;5.10;99.90;;;;;;4985505;28;20126;-81
2020/12/12 07:54:50;;;;;;;25.50;11.07;;;5.10;99.90;;;;;;4968998;28;20055;-80
2020/12/12 07:57:16;;;;;;;22.85;9.30;;;5.10;99.90;;;;;;4969162;28;20062;-80
2020/12/12 07:59:42;;;;;;;24.38;10.35;;;5.10;99.90;;;;;;5001687;28;20027;-80
2020/12/12 08:02:09;;;;;;;29.13;10.95;;;5.10;99.90;;;;;;4969208;28;20035;-81
2020/12/12 08:04:35;;;;;;;26.50;9.70;;;5.10;99.90;;;;;;4968973;28;20041;-82
2020/12/12 08:07:12;;;;;;;26.58;9.95;;;5.10;99.90;;;;;;4985294;28;20129;-81
2020/12/12 08:09:45;;;;;;;27.52;10.45;;;5.10;99.90;;;;;;5001729;28;20077;-81
2020/12/12 08:12:17;;;;;;;30.35;11.38;;;5.20;99.90;;;;;;4985147;28;20058;-82
2020/12/12 08:14:45;;;;;;;30.92;11.18;;;5.20;99.90;;;;;;4972087;28;20042;-81
2020/12/12 08:17:11;;;;;;;22.88;9.35;;;5.20;99.90;;;;;;5022311;28;20441;-81
2020/12/12 08:19:45;;;;;;;23.77;9.65;;;5.20;99.90;;;;;;5007376;28;20085;-81
2020/12/12 08:22:19;;;;;;;24.30;12.55;;;5.20;99.90;;;;;;4994547;28;20471;-81
2020/12/12 08:24:46;;;;;;;20.33;10.05;;;5.20;99.90;;;;;;4972183;28;20039;-80
2020/12/12 08:27:13;;;;;;;24.10;10.20;;;5.20;99.90;;;;;;4988013;28;20034;-81
2020/12/12 08:29:51;;;;;;;24.73;10.85;;;5.20;99.90;;;;;;4989623;28;20031;-81
2020/12/12 08:32:32;;;;;;;29.25;11.60;;;5.30;99.90;;;;;;4972445;28;20105;-81
2020/12/12 08:35:16;;;;;;;23.33;10.27;;;5.30;99.90;;;;;;4972617;28;20035;-81
2020/12/12 08:37:51;;;;;;;35.10;14.68;;;5.30;99.90;;;;;;4988764;28;20114;-81
2020/12/12 08:40:17;;;;;;;27.83;12.32;;;5.30;99.90;;;;;;4988779;28;20046;-81
2020/12/12 08:42:58;;;;;;;26.70;9.43;;;5.30;99.90;;;;;;4971967;28;20035;-82
2020/12/12 08:45:25;;;;;;;23.55;9.98;;;5.30;99.90;;;;;;4980129;28;20038;-80
2020/12/12 08:48:20;;;;;;;27.60;10.95;;;5.30;99.90;;;;;;4987799;28;20031;-81
2020/12/12 08:50:56;;;;;;;29.30;11.57;;;5.30;99.90;;;;;;4983402;28;20042;-81
2020/12/12 08:53:34;;;;;;;26.85;11.68;;;5.30;99.90;;;;;;4987697;28;20041;-80
2020/12/12 08:56:01;;;;;;;40.97;13.70;;;5.40;99.90;;;;;;4985236;28;20100;-83
2020/12/12 08:58:39;;;;;;;28.63;11.05;;;5.40;99.90;;;;;;4991090;28;20030;-81
2020/12/12 09:01:20;;;;;;;32.95;11.98;;;5.40;99.90;;;;;;4991058;28;20504;-81
2020/12/12 09:04:26;;;;;;;26.42;10.88;;;5.40;99.90;;;;;;4990955;28;20027;-81
2020/12/12 09:06:54;;;;;;;28.55;11.23;;;5.40;99.90;;;;;;4947290;29;20090;-82
2020/12/12 09:09:27;;;;;;;32.13;11.18;;;5.50;99.90;;;;;;4947728;29;20063;-81
2020/12/12 09:12:03;;;;;;;27.73;11.73;;;5.50;99.90;;;;;;4947454;29;20051;-81
2020/12/12 09:14:31;;;;;;;32.92;11.32;;;5.50;99.90;;;;;;4949937;29;20386;-82
2020/12/12 09:16:58;;;;;;;31.88;11.77;;;5.60;99.90;;;;;;4950561;29;20043;-81
2020/12/12 09:19:25;;;;;;;29.90;10.65;;;5.50;99.90;;;;;;4950881;29;20111;-82
2020/12/12 09:21:51;;;;;;;32.05;11.40;;;5.60;99.90;;;;;;4950556;29;20027;-80
2020/12/12 09:24:18;;;;;;;28.05;9.57;;;5.60;99.90;;;;;;4966860;29;20054;-81
2020/12/12 09:26:45;;;;;;;37.67;12.38;;;5.60;99.90;;;;;;4966391;29;20059;-81
2020/12/12 09:29:11;;;;;;;24.98;11.23;;;5.60;99.90;;;;;;4966768;29;20087;-82
2020/12/12 09:31:36;;;;;;;43.22;13.40;;;5.60;99.90;;;;;;4950490;28;20043;-82
2020/12/12 09:34:02;;;;;;;31.55;12.02;;;5.60;99.90;;;;;;4950043;29;20027;-81
2020/12/12 09:36:28;;;;;;;37.58;14.73;;;5.60;99.90;;;;;;4950279;29;20039;-83
2020/12/12 09:38:54;;;;;;;36.17;13.38;;;5.60;99.90;;;;;;4950578;29;20035;-81
2020/12/12 09:41:19;;;;;;;28.58;12.90;;;5.70;99.90;;;;;;4950497;29;20039;-81
2020/12/12 09:43:45;;;;;;;32.05;13.23;;;5.70;99.90;;;;;;4967417;28;20047;-81
2020/12/12 09:46:11;;;;;;;34.33;12.82;;;5.70;99.90;;;;;;4998268;28;20066;-81
2020/12/12 09:48:38;;;;;;;44.47;12.38;;;5.70;99.90;;;;;;5009471;28;20041;-81
2020/12/12 09:51:05;;;;;;;35.85;11.32;;;5.70;99.90;;;;;;5025630;28;20097;-79
2020/12/12 09:53:31;;;;;;;36.55;12.30;;;5.80;99.90;;;;;;5009510;28;20022;-81
2020/12/12 09:55:57;;;;;;;38.25;13.20;;;5.80;99.90;;;;;;5008944;28;20058;-80
2020/12/12 09:58:24;;;;;;;33.03;12.32;;;5.80;99.90;;;;;;5009154;28;20034;-82
2020/12/12 10:00:50;;;;;;;28.05;11.55;;;5.80;99.90;;;;;;5025706;28;20057;-81
2020/12/12 10:03:15;;;;;;;39.03;13.93;;;5.80;99.90;;;;;;5008487;28;20466;-81
2020/12/12 10:05:41;;;;;;;39.13;12.52;;;5.80;99.90;;;;;;5025195;23;20054;-81
2020/12/12 10:08:13;;;;;;;26.13;10.48;;;5.80;99.90;;;;;;5010989;28;20026;-81
2020/12/12 10:10:38;;;;;;;43.85;14.38;;;5.80;99.90;;;;;;5026211;28;20036;-80
2020/12/12 10:13:04;;;;;;;35.13;12.20;;;5.80;99.90;;;;;;5014180;28;20030;-81
2020/12/12 10:15:29;;;;;;;45.03;14.52;;;5.90;99.90;;;;;;5001006;28;20031;-81
2020/12/12 10:17:55;;;;;;;36.13;12.88;;;5.90;99.90;;;;;;5012350;28;20033;-80
2020/12/12 10:20:22;;;;;;;36.38;12.40;;;5.90;99.90;;;;;;5012480;28;20029;-81
2020/12/12 10:22:49;;;;;;;33.30;12.95;;;5.90;99.90;;;;;;4990796;28;20077;-81
2020/12/12 10:25:15;;;;;;;39.83;13.13;;;5.90;99.90;;;;;;4991597;28;20042;-82
2020/12/12 10:27:41;;;;;;;44.03;11.18;;;6.00;99.90;;;;;;5008627;28;20125;-81
2020/12/12 10:30:09;;;;;;;32.50;12.77;;;6.00;99.90;;;;;;5008677;28;20056;-81
2020/12/12 10:32:35;;;;;;;38.40;13.35;;;6.00;99.90;;;;;;5008704;28;20037;-81
2020/12/12 10:35:01;;;;;;;34.47;12.50;;;6.00;99.90;;;;;;5008540;28;20057;-81
2020/12/12 10:37:27;;;;;;;47.08;14.80;;;6.00;99.90;;;;;;5026137;28;20033;-81
2020/12/12 10:40:00;;;;;;;43.80;13.40;;;6.00;99.90;;;;;;4989325;28;20062;-81
2020/12/12 10:42:26;;;;;;;38.33;14.05;;;6.00;99.90;;;;;;4997679;28;20050;-81
2020/12/12 10:44:52;;;;;;;40.95;14.88;;;6.10;99.90;;;;;;5004277;28;20069;-81
2020/12/12 10:47:17;;;;;;;39.17;15.88;;;6.10;99.90;;;;;;4991476;28;20046;-80
2020/12/12 10:49:43;;;;;;;47.28;16.00;;;6.10;99.90;;;;;;5008560;28;20333;-81
2020/12/12 10:52:08;;;;;;;40.45;15.00;;;6.10;99.90;;;;;;5008468;28;20084;-81
2020/12/12 10:54:34;;;;;;;37.78;13.68;;;6.20;99.90;;;;;;5026045;28;20457;-81
2020/12/12 10:56:59;;;;;;;34.85;14.07;;;6.20;99.90;;;;;;4988933;28;20026;-81
2020/12/12 10:59:25;;;;;;;38.90;14.50;;;6.20;99.90;;;;;;4988682;28;20030;-81
2020/12/12 11:01:53;;;;;;;32.13;12.57;;;6.20;99.90;;;;;;4995787;28;20026;-81
2020/12/12 11:04:19;;;;;;;38.22;14.40;;;6.20;99.90;;;;;;5008142;28;20095;-80
2020/12/12 11:06:44;;;;;;;48.30;17.60;;;6.20;99.90;;;;;;4984660;28;20054;-82
2020/12/12 11:09:10;;;;;;;28.73;13.23;;;6.20;99.90;;;;;;5001841;28;20038;-81
2020/12/12 11:11:39;;;;;;;35.53;13.98;;;6.20;99.90;;;;;;4988369;28;20031;-80
2020/12/12 11:14:06;;;;;;;34.78;13.07;;;6.20;99.90;;;;;;5002485;28;20057;-81
2020/12/12 11:16:32;;;;;;;28.17;11.68;;;6.20;99.90;;;;;;5016857;28;20046;-80
2020/12/12 11:18:58;;;;;;;29.63;11.77;;;6.20;99.90;;;;;;4985475;28;20113;-82
2020/12/12 11:21:24;;;;;;;27.52;12.30;;;6.20;99.90;;;;;;5004684;28;20061;-81
2020/12/12 11:23:50;;;;;;;33.15;13.18;;;6.30;99.90;;;;;;4988285;28;20026;-81
2020/12/12 11:26:17;;;;;;;36.95;15.73;;;6.30;99.90;;;;;;4988551;28;20133;-81
2020/12/12 11:28:44;;;;;;;30.75;12.65;;;6.30;99.90;;;;;;4988297;28;20122;-81
2020/12/12 11:31:11;;;;;;;41.80;14.20;;;6.30;99.90;;;;;;5004573;28;20257;-80
2020/12/12 11:33:39;;;;;;;28.60;13.60;;;6.30;99.90;;;;;;4988349;28;20049;-81
2020/12/12 11:36:16;;;;;;;28.67;14.07;;;6.40;99.90;;;;;;4985854;28;20117;-82
2020/12/12 11:46:38;;;;;;;28.35;13.05;;;6.50;99.90;;;;;;4979020;28;20045;-81
2020/12/12 11:49:05;;;;;;;27.65;13.48;;;6.50;99.90;;;;;;4985774;28;20026;-82
2020/12/12 11:51:36;;;;;;;29.02;13.43;;;6.50;99.90;;;;;;4988159;28;20533;-81
2020/12/12 11:54:02;;;;;;;30.15;13.60;;;6.60;99.90;;;;;;4988062;28;20030;-81
2020/12/12 11:56:28;;;;;;;22.83;11.32;;;6.60;99.90;;;;;;4987024;28;20058;-82
2020/12/12 11:58:54;;;;;;;25.95;12.48;;;6.70;99.90;;;;;;5001396;28;20027;-82
2020/12/12 12:01:24;;;;;;;26.85;12.35;;;6.70;99.90;;;;;;4991541;28;20026;-82
2020/12/12 12:04:10;;;;;;;25.83;12.68;;;6.70;99.90;;;;;;5009421;28;20026;-81
2020/12/12 12:06:37;;;;;;;25.90;12.65;;;6.80;99.90;;;;;;5002041;28;20240;-82
2020/12/12 12:11:34;;;;;;;28.73;13.30;;;6.70;99.90;;;;;;5003980;28;20038;-81
2020/12/12 12:14:04;;;;;;;26.75;12.65;;;6.70;99.90;;;;;;4984884;28;20034;-83
2020/12/12 12:16:38;;;;;;;26.10;12.73;;;6.70;99.90;;;;;;5009055;28;20044;-82
2020/12/12 12:19:09;;;;;;;23.95;12.18;;;6.80;99.90;;;;;;5009993;28;20034;-82
2020/12/12 12:21:35;;;;;;;21.23;10.90;;;6.70;99.90;;;;;;5015675;28;20510;-84
2020/12/12 12:24:03;;;;;;;28.23;11.73;;;6.80;99.90;;;;;;4990499;28;20093;-81
2020/12/12 12:26:29;;;;;;;22.13;10.85;;;6.80;99.90;;;;;;4990454;28;20161;-82
2020/12/12 12:28:55;;;;;;;26.42;11.88;;;6.80;99.90;;;;;;4990533;28;20066;-81
2020/12/12 12:31:22;;;;;;;23.40;11.35;;;6.90;99.90;;;;;;4990245;28;20216;-81
2020/12/12 12:33:48;;;;;;;24.75;12.07;;;6.90;99.90;;;;;;4989960;28;20045;-80
2020/12/12 12:36:15;;;;;;;23.98;11.65;;;6.90;99.90;;;;;;4990290;28;20061;-81
2020/12/12 12:38:40;;;;;;;25.40;11.80;;;7.00;99.90;;;;;;4990311;28;20027;-81
2020/12/12 12:41:06;;;;;;;21.77;10.55;;;7.00;99.90;;;;;;4990298;28;20157;-81
2020/12/12 12:43:32;;;;;;;25.60;11.45;;;7.00;99.90;;;;;;4990463;28;20038;-81
2020/12/12 12:45:57;;;;;;;31.63;14.20;;;7.00;99.90;;;;;;4991069;28;20060;-81
2020/12/12 12:48:23;;;;;;;29.17;13.18;;;7.10;99.90;;;;;;4991113;28;20030;-82
2020/12/12 12:50:48;;;;;;;27.30;12.35;;;7.00;99.90;;;;;;4991400;28;20069;-81
2020/12/12 12:53:14;;;;;;;26.10;12.77;;;7.00;99.90;;;;;;4991336;28;20041;-81
2020/12/12 12:55:41;;;;;;;23.50;12.38;;;7.10;99.90;;;;;;5008409;28;20175;-82
2020/12/12 12:58:07;;;;;;;25.63;11.82;;;7.00;99.90;;;;;;4990982;28;20050;-80
2020/12/12 13:00:36;;;;;;;25.08;11.55;;;7.10;99.90;;;;;;4974777;28;20033;-80